Time;durP1;ratioP1;P1;durP2;ratioP2;P2;SDS_P1;SDS_P2;PMS_P1;PMS_P2;Temp;Humidity;BMP_temperature;BMP_pressure;BME280_temperature;BME280_humidity;BME280_pressure;Samples;Min_cycle;Max_cycle;Signal;HPM_P1;HPM_P2
2024/01/10 00:01:11;;;;;;;52.20;24.10;;;;;;;-14.56;76.98;98209.10;110683;1272;22299;-74
2024/01/10 00:03:51;;;;;;;62.60;25.40;;;;;;;-14.56;76.69;98203.48;110693;1267;22331;-74
2024/01/10 00:06:24;;;;;;;51.10;23.90;;;;;;;-14.68;76.63;98200.45;110647;1272;22319;-74
2024/01/10 00:08:57;;;;;;;40.70;16.20;;;;;;;-14.79;76.83;98194.25;110656;1272;22461;-74
2024/01/10 00:11:31;;;;;;;53.60;26.30;;;;;;;-14.84;76.89;98191.27;110687;1269;22206;-74
2024/01/10 00:14:04;;;;;;;68.40;29.60;;;;;;;-14.84;77.12;98188.92;110620;1272;22289;-74
2024/01/10 00:16:39;;;;;;;63.00;28.40;;;;;;;-14.78;77.42;98189.09;110686;1272;22153;-74
2024/01/10 00:19:11;;;;;;;59.20;26.30;;;;;;;-14.72;77.57;98189.61;110690;1272;23034;-74
2024/01/10 00:21:43;;;;;;;56.40;24.30;;;;;;;-14.79;76.76;98184.09;110670;1272;22387;-74
2024/01/10 00:24:15;;;;;;;41.60;17.20;;;;;;;-14.91;76.28;98181.32;110669;1272;22195;-74
2024/01/10 00:26:55;;;;;;;56.10;24.80;;;;;;;-15.13;76.07;98181.11;110684;1272;22185;-74
2024/01/10 00:29:27;;;;;;;59.30;24.40;;;;;;;-15.32;76.12;98181.29;110622;1272;22448;-75
2024/01/10 00:32:00;;;;;;;60.70;28.40;;;;;;;-15.32;76.66;98179.56;110646;1270;22771;-74
2024/01/10 00:34:32;;;;;;;79.10;31.80;;;;;;;-15.23;77.29;98175.86;110628;1267;22328;-74
2024/01/10 00:37:06;;;;;;;70.30;29.80;;;;;;;-15.06;77.89;98175.98;110704;1272;22188;-74
2024/01/10 00:39:39;;;;;;;52.80;25.60;;;;;;;-14.88;78.15;98177.40;110691;1266;22172;-74
2024/01/10 00:42:12;;;;;;;59.60;25.80;;;;;;;-14.86;77.86;98170.52;110677;1272;23004;-74
2024/01/10 00:44:44;;;;;;;59.10;27.10;;;;;;;-14.86;77.67;98167.29;110676;1271;22768;-74
2024/01/10 00:47:16;;;;;;;66.30;27.40;;;;;;;-14.93;77.37;98169.55;110666;1272;22223;-74
2024/01/10 00:49:55;;;;;;;48.20;23.40;;;;;;;-14.95;77.47;98170.82;110682;1272;22285;-74
2024/01/10 00:52:30;;;;;;;46.60;20.50;;;;;;;-14.86;77.92;98166.45;110692;1272;22394;-74
2024/01/10 00:55:02;;;;;;;46.50;20.60;;;;;;;-14.73;78.01;98161.02;110653;1267;22314;-75
2024/01/10 00:57:34;;;;;;;52.80;21.20;;;;;;;-14.73;77.84;98157.95;110694;1272;22305;-74
2024/01/10 01:00:13;;;;;;;46.40;19.00;;;;;;;-14.82;77.57;98158.11;110683;1257;22317;-74
2024/01/10 01:02:53;;;;;;;36.90;17.70;;;;;;;-14.73;77.95;98158.13;110659;1272;22194;-74
2024/01/10 01:05:25;;;;;;;34.40;14.80;;;;;;;-14.61;78.13;98154.77;110685;1272;22286;-74
2024/01/10 01:07:59;;;;;;;37.60;16.70;;;;;;;-14.51;78.34;98155.70;110713;1272;22379;-74
2024/01/10 01:10:32;;;;;;;29.30;13.60;;;;;;;-14.39;78.52;98159.95;110683;1266;22496;-75
2024/01/10 01:13:04;;;;;;;23.10;11.40;;;;;;;-14.28;78.63;98155.41;110675;1272;22186;-74
2024/01/10 01:15:36;;;;;;;26.90;12.10;;;;;;;-14.22;78.71;98162.23;110709;1272;22335;-74
2024/01/10 01:18:12;;;;;;;23.40;9.80;;;;;;;-14.21;78.41;98167.27;110641;1272;22290;-75
2024/01/10 01:20:44;;;;;;;27.30;12.50;;;;;;;-14.23;78.21;98170.59;110679;1266;22301;-74
2024/01/10 01:23:15;;;;;;;26.00;13.60;;;;;;;-14.25;78.05;98175.63;110708;1270;22167;-74
2024/01/10 01:25:55;;;;;;;31.40;13.80;;;;;;;-14.33;77.67;98181.68;110655;1272;44436;-74
2024/01/10 01:28:27;;;;;;;27.00;10.30;;;;;;;-14.46;77.14;98184.60;110709;1267;22186;-74
2024/01/10 01:30:59;;;;;;;38.30;16.40;;;;;;;-14.61;76.92;98188.70;110717;1272;22907;-75
2024/01/10 01:33:32;;;;;;;38.20;17.80;;;;;;;-14.70;76.91;98183.89;110668;1272;22306;-74
2024/01/10 01:36:04;;;;;;;40.40;16.20;;;;;;;-14.88;76.71;98183.67;110669;1266;22264;-74
2024/01/10 01:38:39;;;;;;;48.10;21.10;;;;;;;-15.02;76.67;98188.33;110685;1267;22286;-74
2024/01/10 01:41:09;;;;;;;39.30;17.80;;;;;;;-15.08;76.88;98183.55;110687;1267;22308;-74
2024/01/10 01:43:42;;;;;;;41.60;19.70;;;;;;;-15.14;77.17;98178.13;110680;1262;22183;-74
2024/01/10 01:46:13;;;;;;;61.20;25.00;;;;;;;-15.11;77.51;98173.21;110664;1267;22362;-74
2024/01/10 01:48:45;;;;;;;47.70;21.90;;;;;;;-15.02;77.94;98172.41;110696;1266;22369;-75
2024/01/10 01:51:18;;;;;;;58.80;25.10;;;;;;;-14.93;78.25;98165.11;110675;1272;22275;-75
2024/01/10 01:53:51;;;;;;;40.10;19.30;;;;;;;-14.84;78.51;98167.87;110685;1270;22314;-74
2024/01/10 01:56:25;;;;;;;37.20;17.70;;;;;;;-14.74;78.67;98173.45;110662;1272;22459;-75
2024/01/10 01:58:58;;;;;;;33.60;14.40;;;;;;;-14.67;78.71;98173.07;110703;1272;22925;-74
2024/01/10 02:01:30;;;;;;;25.90;11.40;;;;;;;-14.62;78.53;98170.44;110651;1272;22313;-75
2024/01/10 02:04:03;;;;;;;28.10;10.60;;;;;;;-14.56;78.69;98168.36;110724;1267;22174;-75
2024/01/10 02:06:36;;;;;;;29.50;11.70;;;;;;;-14.45;78.74;98165.58;110696;1272;22343;-75
2024/01/10 02:09:08;;;;;;;26.10;11.70;;;;;;;-14.35;78.94;98160.42;110705;1267;22200;-74
2024/01/10 02:11:41;;;;;;;23.20;10.20;;;;;;;-14.46;78.34;98156.95;110653;1272;22311;-74
2024/01/10 02:14:14;;;;;;;17.90;8.60;;;;;;;-14.62;78.00;98157.34;110658;1270;22588;-74
2024/01/10 02:16:46;;;;;;;23.30;10.10;;;;;;;-14.65;78.26;98152.23;110674;1272;22189;-74
2024/01/10 02:19:26;;;;;;;21.60;10.30;;;;;;;-14.53;78.91;98149.21;110662;1267;22200;-74
2024/01/10 02:21:59;;;;;;;19.60;8.20;;;;;;;-14.32;79.60;98150.92;110593;1266;22307;-74
2024/01/10 02:24:32;;;;;;;20.40;9.50;;;;;;;-14.14;80.09;98147.83;110658;1271;22405;-74
2024/01/10 02:27:05;;;;;;;18.90;7.80;;;;;;;-14.01;80.37;98145.75;110700;1267;22999;-74
2024/01/10 02:29:38;;;;;;;20.30;8.10;;;;;;;-13.93;80.11;98141.86;110642;1267;22881;-74
2024/01/10 02:32:12;;;;;;;9.10;4.60;;;;;;;-13.78;80.76;98140.65;110657;1271;22348;-75
2024/01/10 02:34:45;;;;;;;13.60;6.20;;;;;;;-13.47;81.67;98139.85;110673;1272;22949;-75
2024/01/10 02:37:20;;;;;;;16.20;6.70;;;;;;;-13.13;81.92;98146.60;110685;1272;22171;-75
2024/01/10 02:39:52;;;;;;;16.70;6.10;;;;;;;-12.93;82.01;98147.56;110720;1271;22288;-75
2024/01/10 02:42:25;;;;;;;14.70;6.60;;;;;;;-12.81;82.01;98146.66;110666;1272;22268;-75
2024/01/10 02:44:57;;;;;;;13.00;6.50;;;;;;;-12.56;82.33;98141.54;110689;1272;22185;-75
2024/01/10 02:47:31;;;;;;;10.90;5.50;;;;;;;-12.41;82.09;98134.95;110693;1272;22300;-75
2024/01/10 02:50:04;;;;;;;17.50;8.80;;;;;;;-12.21;82.47;98130.98;110681;1266;22322;-75
2024/01/10 02:52:39;;;;;;;15.20;7.50;;;;;;;-11.89;82.71;98126.64;110649;1272;22294;-75
2024/01/10 02:55:11;;;;;;;18.60;8.20;;;;;;;-11.78;82.52;98122.84;110693;1271;22342;-75
2024/01/10 02:57:43;;;;;;;14.60;6.90;;;;;;;-11.63;82.37;98115.83;110691;1266;22969;-75
2024/01/10 03:00:19;;;;;;;16.90;7.90;;;;;;;-11.55;82.61;98112.01;110669;1265;22193;-75
2024/01/10 03:02:52;;;;;;;18.60;6.30;;;;;;;-11.39;82.39;98112.00;110702;1269;23314;-75
2024/01/10 03:05:25;;;;;;;16.40;7.60;;;;;;;-11.25;82.51;98111.53;110658;1272;25902;-75
2024/01/10 03:07:57;;;;;;;11.60;5.10;;;;;;;-11.19;82.36;98106.55;110758;1265;23427;-75
2024/01/10 03:10:29;;;;;;;18.10;9.10;;;;;;;-11.10;82.52;98103.81;110728;1266;22200;-75
2024/01/10 03:13:01;;;;;;;19.60;9.00;;;;;;;-10.91;82.59;98104.38;110641;1272;22203;-76
2024/01/10 03:15:40;;;;;;;19.90;8.60;;;;;;;-10.79;82.45;98100.81;110624;1266;22338;-76
2024/01/10 03:18:12;;;;;;;19.50;8.50;;;;;;;-10.68;82.52;98100.38;110713;1272;22351;-75
2024/01/10 03:20:44;;;;;;;11.10;4.50;;;;;;;-10.60;82.45;98091.10;110678;1267;23184;-75
2024/01/10 03:23:29;;;;;;;16.50;6.30;;;;;;;-10.51;82.70;98089.60;110700;1272;23327;-75
2024/01/10 03:26:01;;;;;;;16.20;6.60;;;;;;;-10.38;82.38;98091.93;110689;1266;22334;-75
2024/01/10 03:28:33;;;;;;;14.80;7.00;;;;;;;-10.22;82.81;98093.40;110663;1266;22436;-75
2024/01/10 03:31:05;;;;;;;18.60;8.60;;;;;;;-10.10;82.66;98095.11;110693;1266;23012;-75
2024/01/10 03:33:38;;;;;;;19.90;8.40;;;;;;;-10.05;82.27;98082.30;110679;1270;22415;-75
2024/01/10 03:36:21;;;;;;;10.60;5.40;;;;;;;-10.04;82.30;98082.35;110693;1267;33637;-75
2024/01/10 03:38:53;;;;;;;17.10;7.70;;;;;;;-10.00;82.44;98081.52;110688;1266;22151;-75
2024/01/10 03:41:24;;;;;;;14.50;6.60;;;;;;;-10.00;82.02;98078.47;110697;1266;22857;-75
2024/01/10 03:43:56;;;;;;;19.90;8.60;;;;;;;-10.01;82.25;98073.38;110671;1272;22414;-75
2024/01/10 03:46:30;;;;;;;9.90;3.70;;;;;;;-9.99;82.21;98071.36;110664;1272;22456;-75
2024/01/10 03:49:03;;;;;;;15.10;6.80;;;;;;;-9.86;82.46;98070.55;110708;1266;22297;-75
2024/01/10 03:51:35;;;;;;;12.30;5.60;;;;;;;-9.79;82.47;98067.88;110667;1269;23367;-75
2024/01/10 03:54:07;;;;;;;14.30;6.70;;;;;;;-9.73;82.35;98071.52;110652;1272;22167;-75
2024/01/10 03:56:39;;;;;;;13.10;6.00;;;;;;;-9.69;82.24;98080.56;110701;1269;22495;-75
2024/01/10 03:59:11;;;;;;;13.30;6.40;;;;;;;-9.69;82.18;98077.67;110676;1266;22998;-75
2024/01/10 04:01:44;;;;;;;13.10;6.70;;;;;;;-9.73;82.19;98078.30;110707;1272;22379;-75
2024/01/10 04:04:15;;;;;;;15.50;7.50;;;;;;;-9.70;82.10;98078.92;110683;1266;22324;-74
2024/01/10 04:06:47;;;;;;;14.50;4.10;;;;;;;-9.63;82.25;98079.27;110665;1272;22187;-75
2024/01/10 04:09:18;;;;;;;12.30;5.50;;;;;;;-9.60;82.24;98078.38;110698;1266;22306;-75
2024/01/10 04:11:56;;;;;;;11.20;5.70;;;;;;;-9.62;82.07;98075.39;109775;1272;22567;-75
2024/01/10 04:14:29;;;;;;;13.60;5.70;;;;;;;-9.61;82.15;98076.19;109376;1272;22556;-74
2024/01/10 04:17:04;;;;;;;9.80;5.70;;;;;;;-9.59;82.02;98079.61;109422;1265;22517;-75
2024/01/10 04:19:35;;;;;;;14.70;6.30;;;;;;;-9.63;81.90;98082.65;109505;1266;23439;-75
2024/01/10 04:22:07;;;;;;;13.30;6.40;;;;;;;-9.62;81.96;98081.44;109404;1266;23800;-75
2024/01/10 04:24:37;;;;;;;11.90;5.70;;;;;;;-9.62;81.80;98074.39;109419;1266;22531;-74
2024/01/10 04:27:08;;;;;;;13.00;6.00;;;;;;;-9.64;81.81;98070.95;109430;1266;23431;-74
2024/01/10 04:29:39;;;;;;;11.30;5.30;;;;;;;-9.64;81.85;98071.13;109412;1266;22675;-75
2024/01/10 04:32:10;;;;;;;12.30;4.90;;;;;;;-9.64;81.79;98070.11;109484;1272;22609;-75
2024/01/10 04:34:41;;;;;;;10.50;5.40;;;;;;;-9.63;82.04;98068.33;109400;1272;22549;-75
2024/01/10 04:37:12;;;;;;;12.60;5.80;;;;;;;-9.66;81.70;98065.13;109352;1272;22518;-75
2024/01/10 04:39:43;;;;;;;11.30;5.30;;;;;;;-9.67;81.71;98066.39;109441;1272;22555;-74
2024/01/10 04:42:15;;;;;;;10.20;4.40;;;;;;;-9.73;81.68;98066.55;109419;1266;22486;-74
2024/01/10 04:44:46;;;;;;;8.10;3.20;;;;;;;-9.78;81.92;98058.50;109423;1272;22583;-74
2024/01/10 04:47:17;;;;;;;11.30;5.00;;;;;;;-9.90;81.48;98060.11;109465;1265;22543;-74
2024/01/10 04:49:48;;;;;;;14.80;6.90;;;;;;;-10.00;81.53;98060.04;109451;1272;22573;-75
2024/01/10 04:52:21;;;;;;;13.80;6.40;;;;;;;-9.94;81.94;98066.55;109446;1264;22829;-75
2024/01/10 04:54:52;;;;;;;12.70;6.90;;;;;;;-9.90;81.70;98067.65;109414;1272;23934;-74
2024/01/10 04:57:23;;;;;;;16.40;6.30;;;;;;;-9.88;81.77;98061.86;109432;1264;22517;-75
2024/01/10 04:59:54;;;;;;;11.50;4.70;;;;;;;-9.78;81.91;98057.98;109417;1272;22752;-75
2024/01/10 05:02:30;;;;;;;9.30;4.40;;;;;;;-9.70;81.77;98058.11;109448;1262;22587;-74
2024/01/10 05:05:03;;;;;;;6.10;3.80;;;;;;;-9.65;82.13;98057.48;109409;1272;22517;-74
2024/01/10 05:07:37;;;;;;;8.80;3.90;;;;;;;-9.63;81.98;98054.60;109424;1253;23913;-75
2024/01/10 05:10:09;;;;;;;8.50;3.80;;;;;;;-9.61;82.09;98062.17;109446;1272;23276;-75
2024/01/10 05:12:41;;;;;;;12.20;6.00;;;;;;;-9.61;81.65;98065.73;110703;1272;23494;-75
2024/01/10 05:15:13;;;;;;;11.10;6.00;;;;;;;-9.54;81.81;98066.50;110694;1266;22496;-75
2024/01/10 05:17:46;;;;;;;11.60;4.50;;;;;;;-9.51;82.11;98065.53;110666;1272;22294;-75
2024/01/10 05:20:19;;;;;;;14.10;6.50;;;;;;;-9.53;81.84;98064.84;110676;1265;22313;-75
2024/01/10 05:22:52;;;;;;;10.50;5.80;;;;;;;-9.52;81.51;98069.44;110744;1271;22245;-75
2024/01/10 05:25:29;;;;;;;10.70;4.90;;;;;;;-9.51;81.84;98073.83;110654;1266;22299;-75
2024/01/10 05:28:01;;;;;;;14.10;6.90;;;;;;;-9.49;81.75;98078.88;110678;1272;22404;-75
2024/01/10 05:30:34;;;;;;;11.90;4.70;;;;;;;-9.45;81.86;98079.80;110686;1266;22236;-75
2024/01/10 05:33:08;;;;;;;7.50;3.40;;;;;;;-9.58;81.36;98088.63;110678;1269;22381;-75
2024/01/10 05:35:40;;;;;;;8.50;4.00;;;;;;;-9.76;80.98;98091.25;110683;1272;23121;-75
2024/01/10 05:38:13;;;;;;;9.70;4.90;;;;;;;-9.92;80.87;98088.13;110693;1272;22923;-75
2024/01/10 05:40:45;;;;;;;11.70;5.10;;;;;;;-10.03;81.04;98091.05;110731;1272;22380;-75
2024/01/10 05:43:25;;;;;;;12.70;5.80;;;;;;;-10.12;80.73;98089.99;110720;1271;22193;-75
2024/01/10 05:46:00;;;;;;;12.90;5.60;;;;;;;-10.19;81.31;98088.59;110686;1266;22205;-75
2024/01/10 05:48:33;;;;;;;8.40;4.50;;;;;;;-10.21;81.29;98088.04;110698;1272;22878;-75
2024/01/10 05:51:05;;;;;;;11.00;5.30;;;;;;;-10.27;81.17;98097.56;110706;1271;22830;-75
2024/01/10 05:53:38;;;;;;;19.20;8.70;;;;;;;-10.39;80.95;98099.30;110699;1272;22323;-75
2024/01/10 05:56:09;;;;;;;20.50;8.70;;;;;;;-10.51;80.41;98100.71;110658;1266;23116;-75
2024/01/10 05:58:41;;;;;;;18.30;7.70;;;;;;;-10.64;80.03;98107.27;110720;1271;22338;-75
2024/01/10 06:01:13;;;;;;;19.90;8.00;;;;;;;-10.80;79.85;98106.00;110695;1266;22190;-75
2024/01/10 06:03:46;;;;;;;15.50;7.40;;;;;;;-10.94;79.72;98102.19;110710;1272;22297;-75
2024/01/10 06:06:17;;;;;;;14.90;6.10;;;;;;;-11.00;79.78;98109.83;110691;1265;23076;-75
2024/01/10 06:08:52;;;;;;;15.50;6.40;;;;;;;-11.03;79.80;98109.52;110684;1272;22189;-75
2024/01/10 06:11:25;;;;;;;15.40;7.20;;;;;;;-11.07;80.09;98104.16;110727;1266;22382;-75
2024/01/10 06:14:00;;;;;;;16.20;7.40;;;;;;;-11.14;79.63;98102.92;110679;1271;22365;-75
2024/01/10 06:16:35;;;;;;;17.30;8.10;;;;;;;-11.26;79.60;98108.19;110669;1272;22195;-74
2024/01/10 06:19:10;;;;;;;11.90;5.40;;;;;;;-11.33;79.61;98112.95;110656;1270;22252;-75
2024/01/10 06:21:42;;;;;;;16.90;6.40;;;;;;;-11.40;79.54;98118.17;110704;1272;22198;-75
2024/01/10 06:24:14;;;;;;;12.70;5.90;;;;;;;-11.47;79.19;98118.66;110659;1271;22213;-75
2024/01/10 06:26:49;;;;;;;13.60;6.40;;;;;;;-11.66;78.81;98111.05;110582;1273;22321;-75
2024/01/10 06:29:24;;;;;;;16.00;6.40;;;;;;;-11.82;78.83;98121.39;110522;1267;23248;-75
2024/01/10 06:31:57;;;;;;;16.00;6.60;;;;;;;-11.93;78.96;98119.76;110533;1266;22305;-75
2024/01/10 06:34:31;;;;;;;20.30;9.60;;;;;;;-11.97;79.78;98121.89;110502;1272;22159;-75
2024/01/10 06:37:04;;;;;;;14.00;6.50;;;;;;;-11.88;80.50;98121.64;110698;1272;22267;-75
2024/01/10 06:39:36;;;;;;;12.40;4.90;;;;;;;-11.82;80.71;98113.88;110688;1272;22214;-75
2024/01/10 06:42:10;;;;;;;13.30;5.20;;;;;;;-11.67;81.65;98117.27;110655;1266;22181;-75
2024/01/10 06:44:43;;;;;;;14.80;5.90;;;;;;;-11.47;81.94;98112.17;110648;1272;22621;-75
2024/01/10 06:47:14;;;;;;;13.00;5.80;;;;;;;-11.35;82.29;98113.62;110166;1272;22535;-75
2024/01/10 06:49:45;;;;;;;15.50;6.80;;;;;;;-11.23;82.44;98116.70;109372;1272;22602;-75
2024/01/10 06:52:20;;;;;;;11.00;5.00;;;;;;;-11.12;82.64;98116.45;109412;1269;22656;-75
2024/01/10 06:54:54;;;;;;;9.60;3.70;;;;;;;-11.03;82.72;98116.70;109387;1266;22541;-75
2024/01/10 06:57:26;;;;;;;7.80;3.90;;;;;;;-10.97;82.61;98117.29;109373;1269;22591;-75
2024/01/10 06:59:58;;;;;;;7.00;3.00;;;;;;;-10.89;82.67;98119.45;109367;1266;22536;-75
2024/01/10 07:02:29;;;;;;;22.50;10.40;;;;;;;-10.80;82.84;98118.48;109407;1272;22563;-75
2024/01/10 07:05:01;;;;;;;17.80;8.70;;;;;;;-10.63;83.33;98119.85;109336;1266;22669;-75
2024/01/10 07:07:32;;;;;;;22.40;9.70;;;;;;;-10.49;83.36;98114.08;109378;1272;23158;-75
2024/01/10 07:10:04;;;;;;;22.30;10.00;;;;;;;-10.20;83.81;98113.80;109374;1266;22464;-75
2024/01/10 07:12:37;;;;;;;20.20;7.90;;;;;;;-9.64;83.91;98108.76;110647;1264;22307;-76
2024/01/10 07:15:09;;;;;;;15.70;7.00;;;;;;;-8.96;84.07;98116.02;110630;1272;22451;-76
2024/01/10 07:17:42;;;;;;;14.50;6.50;;;;;;;-8.32;83.76;98108.95;110657;1271;22337;-76
2024/01/10 07:20:15;;;;;;;18.10;7.60;;;;;;;-7.65;83.38;98104.14;110712;1259;22326;-76
2024/01/10 07:22:49;;;;;;;14.70;6.10;;;;;;;-7.00;83.19;98100.38;110643;1266;22311;-76
2024/01/10 07:25:25;;;;;;;13.70;7.20;;;;;;;-6.70;81.97;98103.42;110610;1272;22897;-76
2024/01/10 07:28:00;;;;;;;13.60;7.40;;;;;;;-6.31;82.32;98098.42;110616;1270;22800;-77
2024/01/10 07:30:33;;;;;;;11.40;5.70;;;;;;;-6.09;82.06;98098.73;110639;1266;23120;-77
2024/01/10 07:33:11;;;;;;;9.30;5.30;;;;;;;-6.05;81.87;98094.37;110637;1272;22280;-77
2024/01/10 07:35:43;;;;;;;14.50;7.10;;;;;;;-6.14;80.81;98089.05;110619;1272;22297;-77
2024/01/10 07:38:15;;;;;;;13.80;4.50;;;;;;;-6.08;80.13;98088.63;110666;1271;22197;-77
2024/01/10 07:40:47;;;;;;;12.20;6.30;;;;;;;-6.11;79.06;98088.42;110679;1272;22219;-77
2024/01/10 07:43:24;;;;;;;9.00;4.60;;;;;;;-5.96;79.10;98090.33;110663;1272;22250;-77
2024/01/10 07:46:01;;;;;;;9.60;4.90;;;;;;;-5.80;78.37;98094.88;110635;1265;22174;-77
2024/01/10 07:48:35;;;;;;;8.00;4.60;;;;;;;-5.73;77.80;98096.07;110671;1266;22305;-77
2024/01/10 07:51:08;;;;;;;16.20;7.50;;;;;;;-5.78;77.03;98093.46;110684;1272;22343;-77
2024/01/10 07:53:40;;;;;;;13.00;6.60;;;;;;;-5.71;77.21;98092.27;110658;1266;22320;-77
2024/01/10 07:56:13;;;;;;;13.70;6.90;;;;;;;-5.71;76.79;98099.23;110622;1266;22411;-77
2024/01/10 07:58:44;;;;;;;13.30;7.80;;;;;;;-5.89;76.28;98100.18;109355;1269;22564;-77
2024/01/10 08:01:15;;;;;;;11.40;4.90;;;;;;;-5.94;76.40;98103.94;109404;1268;23283;-77
2024/01/10 08:03:49;;;;;;;11.20;6.50;;;;;;;-6.06;75.42;98102.22;109388;1266;22721;-77
2024/01/10 08:06:20;;;;;;;16.00;7.00;;;;;;;-6.17;74.93;98104.44;109388;1272;22536;-77
2024/01/10 08:08:54;;;;;;;12.50;5.90;;;;;;;-6.03;75.49;98102.48;110661;1265;22334;-77
2024/01/10 08:11:26;;;;;;;12.90;5.70;;;;;;;-5.95;75.15;98099.58;110631;1269;23148;-77
2024/01/10 08:14:01;;;;;;;12.20;6.20;;;;;;;-5.95;74.54;98095.71;110649;1266;22395;-77
2024/01/10 08:16:33;;;;;;;9.60;5.80;;;;;;;-6.00;73.96;98092.74;110599;1266;22294;-77
2024/01/10 08:19:05;;;;;;;13.70;7.00;;;;;;;-6.04;73.89;98093.45;110679;1266;22195;-77
2024/01/10 08:21:41;;;;;;;11.60;6.00;;;;;;;-5.96;74.65;98093.95;110614;1266;22199;-77
2024/01/10 08:24:13;;;;;;;9.20;4.80;;;;;;;-5.80;75.06;98097.24;110641;1268;22333;-77
2024/01/10 08:26:45;;;;;;;12.50;6.40;;;;;;;-5.68;74.95;98103.04;110598;1266;22973;-77
2024/01/10 08:29:30;;;;;;;14.80;7.40;;;;;;;-5.51;75.18;98104.25;110633;1265;22309;-77
2024/01/10 08:32:03;;;;;;;11.40;5.40;;;;;;;-5.40;75.02;98103.61;110649;1266;22230;-77
2024/01/10 08:34:36;;;;;;;13.90;6.50;;;;;;;-5.31;75.12;98109.67;110623;1272;22449;-76
2024/01/10 08:37:10;;;;;;;12.80;6.80;;;;;;;-5.05;75.30;98110.21;110648;1266;22197;-77
2024/01/10 08:39:42;;;;;;;8.20;3.50;;;;;;;-4.74;75.57;98111.55;110666;1272;23298;-77
2024/01/10 08:42:13;;;;;;;10.40;6.00;;;;;;;-4.50;75.45;98115.89;110652;1270;22318;-77
2024/01/10 08:44:44;;;;;;;12.50;6.60;;;;;;;-4.39;75.07;98114.73;110629;1272;23977;-77
2024/01/10 08:47:16;;;;;;;13.50;7.40;;;;;;;-4.31;75.04;98112.81;110633;1271;22306;-78
2024/01/10 08:49:51;;;;;;;13.00;7.30;;;;;;;-4.25;74.55;98108.45;110640;1272;22241;-78
2024/01/10 08:52:30;;;;;;;14.20;7.70;;;;;;;-4.28;74.47;98107.65;110628;1266;22117;-78
2024/01/10 08:55:02;;;;;;;15.10;7.40;;;;;;;-4.13;74.50;98109.70;110632;1272;22239;-78
2024/01/10 08:57:33;;;;;;;16.50;8.80;;;;;;;-4.07;74.31;98109.48;110654;1271;23062;-78
2024/01/10 09:00:11;;;;;;;13.90;7.20;;;;;;;-4.03;74.32;98113.90;110658;1272;22781;-78
2024/01/10 09:02:43;;;;;;;13.40;8.10;;;;;;;-3.94;74.17;98115.73;110649;1266;22291;-79
2024/01/10 09:05:14;;;;;;;16.30;9.10;;;;;;;-3.90;73.91;98113.43;110603;1266;23162;-78
2024/01/10 09:07:46;;;;;;;17.40;9.00;;;;;;;-3.91;73.63;98110.93;110640;1270;22225;-78
2024/01/10 09:10:22;;;;;;;18.80;11.40;;;;;;;-3.91;73.50;98113.05;110674;1272;23058;-77
2024/01/10 09:12:54;;;;;;;18.60;10.80;;;;;;;-3.91;73.52;98106.65;110672;1271;22299;-77
2024/01/10 09:15:36;;;;;;;19.10;10.10;;;;;;;-3.93;73.21;98108.40;110648;1261;22310;-77
2024/01/10 09:18:09;;;;;;;21.20;10.60;;;;;;;-4.00;72.80;98106.48;110691;1266;22367;-77
2024/01/10 09:20:41;;;;;;;22.10;12.20;;;;;;;-4.07;72.67;98102.73;110682;1271;22320;-77
2024/01/10 09:23:13;;;;;;;21.50;12.00;;;;;;;-4.08;72.67;98096.59;110708;1272;22790;-77
2024/01/10 09:25:47;;;;;;;24.00;14.20;;;;;;;-4.11;72.47;98092.63;110603;1266;23057;-78
2024/01/10 09:28:20;;;;;;;24.20;13.30;;;;;;;-4.09;72.52;98091.67;110660;1269;22361;-77
2024/01/10 09:30:54;;;;;;;26.90;14.50;;;;;;;-4.12;72.33;98088.15;110644;1271;22511;-77
2024/01/10 09:33:27;;;;;;;26.80;14.10;;;;;;;-4.10;72.38;98084.19;110657;1265;22210;-76
2024/01/10 09:36:03;;;;;;;22.90;13.00;;;;;;;-4.04;72.49;98081.02;110668;1272;22317;-76
2024/01/10 09:38:39;;;;;;;23.50;13.10;;;;;;;-3.93;72.58;98079.58;110683;1272;22281;-76
2024/01/10 09:41:13;;;;;;;20.40;11.70;;;;;;;-3.82;72.51;98081.45;110666;1269;22224;-76
2024/01/10 09:43:45;;;;;;;19.00;9.70;;;;;;;-3.73;72.54;98077.25;110676;1272;22202;-77
2024/01/10 09:46:19;;;;;;;18.30;9.30;;;;;;;-3.64;72.44;98079.45;110628;1272;22391;-77
2024/01/10 09:48:53;;;;;;;20.30;10.00;;;;;;;-3.62;72.26;98074.39;110706;1272;22337;-77
2024/01/10 09:51:26;;;;;;;20.10;10.20;;;;;;;-3.60;72.12;98071.41;110591;1266;22309;-76
2024/01/10 09:54:03;;;;;;;17.20;8.60;;;;;;;-3.60;71.87;98071.41;110694;1266;23061;-77
2024/01/10 09:56:38;;;;;;;13.70;7.20;;;;;;;-3.62;71.69;98073.17;110618;1272;24620;-77
2024/01/10 09:59:12;;;;;;;17.40;9.00;;;;;;;-3.52;71.85;98070.81;110636;1271;22328;-77
2024/01/10 10:01:44;;;;;;;15.80;6.80;;;;;;;-3.45;71.61;98066.35;110519;1266;22722;-77
2024/01/10 10:04:17;;;;;;;12.50;5.70;;;;;;;-3.39;71.46;98072.06;109261;1266;22526;-76
2024/01/10 10:06:58;;;;;;;14.20;7.90;;;;;;;-3.33;71.43;98067.93;109276;1266;27888;-76
2024/01/10 10:09:32;;;;;;;12.00;6.70;;;;;;;-3.25;71.20;98070.03;109293;1266;22534;-76
2024/01/10 10:12:03;;;;;;;12.70;6.60;;;;;;;-3.22;71.10;98069.03;109263;1269;22567;-76
2024/01/10 10:14:36;;;;;;;15.80;8.10;;;;;;;-3.26;70.59;98073.05;109281;1272;23019;-75
2024/01/10 10:17:19;;;;;;;15.20;7.30;;;;;;;-3.24;70.63;98072.38;109249;1269;22897;-76
2024/01/10 10:20:04;;;;;;;14.90;7.20;;;;;;;-3.18;70.51;98072.08;109288;1269;22528;-76
2024/01/10 10:22:35;;;;;;;15.60;7.80;;;;;;;-3.14;70.35;98074.98;109341;1269;22533;-76
2024/01/10 10:25:07;;;;;;;18.40;8.90;;;;;;;-3.10;70.41;98076.09;109289;1268;25598;-76
2024/01/10 10:27:40;;;;;;;13.80;7.60;;;;;;;-3.06;70.00;98070.17;109295;1269;22531;-77
2024/01/10 10:30:12;;;;;;;18.20;9.20;;;;;;;-3.11;69.78;98067.20;109299;1269;22611;-76
2024/01/10 10:32:43;;;;;;;12.70;6.70;;;;;;;-3.08;70.04;98061.46;109283;1266;22996;-76
2024/01/10 10:35:14;;;;;;;17.30;9.00;;;;;;;-3.02;69.80;98057.79;109286;1272;25243;-76
2024/01/10 10:37:48;;;;;;;13.50;5.90;;;;;;;-3.01;69.97;98059.41;109300;1266;25262;-76
2024/01/10 10:40:22;;;;;;;18.10;9.80;;;;;;;-2.95;69.90;98058.33;109314;1271;22551;-77
2024/01/10 10:43:00;;;;;;;16.30;8.30;;;;;;;-2.95;69.78;98056.13;109320;1272;22551;-76
2024/01/10 10:45:37;;;;;;;14.80;8.30;;;;;;;-2.94;69.77;98049.95;110480;1271;185272;-77
2024/01/10 10:48:11;;;;;;;16.10;7.80;;;;;;;-2.93;69.65;98046.93;110675;1266;22456;-76
2024/01/10 10:50:48;;;;;;;16.70;8.80;;;;;;;-2.86;69.92;98043.56;110633;1272;22334;-77
2024/01/10 10:53:30;;;;;;;16.90;9.60;;;;;;;-2.58;69.95;98040.80;110675;1266;22188;-77
2024/01/10 10:56:03;;;;;;;17.50;9.30;;;;;;;-2.47;69.85;98035.66;110674;1271;22811;-77
2024/01/10 10:58:38;;;;;;;14.30;7.90;;;;;;;-2.41;69.37;98034.84;110664;1271;22179;-76
2024/01/10 11:01:15;;;;;;;15.60;6.90;;;;;;;-2.32;69.34;98034.67;110698;1264;23076;-76
2024/01/10 11:03:50;;;;;;;9.30;4.90;;;;;;;-2.39;68.93;98035.03;110728;1272;22283;-76
2024/01/10 11:06:24;;;;;;;13.40;7.40;;;;;;;-2.52;68.10;98024.53;110668;1265;22373;-76
2024/01/10 11:09:01;;;;;;;14.30;8.00;;;;;;;-2.66;67.68;98022.08;110694;1272;22325;-77
2024/01/10 11:11:51;;;;;;;12.70;6.20;;;;;;;-2.68;67.66;98016.78;110645;1271;22173;-77
2024/01/10 11:14:40;;;;;;;10.70;6.20;;;;;;;-2.66;67.81;98017.77;110707;1269;22190;-77
2024/01/10 11:17:50;;;;;;;11.40;5.40;;;;;;;-2.54;68.02;98016.15;110680;1262;22385;-78
2024/01/10 11:20:40;;;;;;;9.50;5.00;;;;;;;-2.37;68.32;98010.19;110681;1272;22195;-78
2024/01/10 11:23:37;;;;;;;9.50;4.60;;;;;;;-2.27;67.79;98011.62;110587;1261;25309;-78
2024/01/10 11:26:10;;;;;;;9.50;4.10;;;;;;;-2.18;67.80;98008.02;109389;1266;22614;-77
2024/01/10 11:28:42;;;;;;;13.00;6.90;;;;;;;-2.07;67.50;98010.42;109372;1267;22731;-78
2024/01/10 11:31:15;;;;;;;12.10;6.20;;;;;;;-1.95;67.62;98008.59;109362;1267;22618;-78
2024/01/10 11:33:49;;;;;;;12.80;7.00;;;;;;;-1.82;67.98;98005.23;109331;1266;22582;-78
2024/01/10 11:36:24;;;;;;;13.10;6.70;;;;;;;-1.66;67.74;98003.83;109381;1272;33557;-78
2024/01/10 11:39:02;;;;;;;10.60;5.30;;;;;;;-1.68;67.08;98002.98;109291;1266;22567;-77
2024/01/10 11:41:35;;;;;;;13.00;6.50;;;;;;;-1.65;66.88;98000.94;109328;1266;22606;-78